sensor_id;sensor_type;location;lat;lon;timestamp;P1;durP1;ratioP1;P2;durP2;ratioP2
78889;SDS011;68279;48.964;14.502;2024-03-02T00:00:21;23.98;;;12.85;;
78889;SDS011;68279;48.964;14.502;2024-03-02T00:02:50;15.93;;;9.15;;
78889;SDS011;68279;48.964;14.502;2024-03-02T00:05:17;21.52;;;9.82;;
78889;SDS011;68279;48.964;14.502;2024-03-02T00:07:56;19.88;;;10.18;;
78889;SDS011;68279;48.964;14.502;2024-03-02T00:10:24;33.20;;;10.82;;
78889;SDS011;68279;48.964;14.502;2024-03-02T00:15:45;24.60;;;8.68;;
78889;SDS011;68279;48.964;14.502;2024-03-02T00:18:12;17.80;;;8.77;;
78889;SDS011;68279;48.964;14.502;2024-03-02T00:20:41;25.52;;;11.15;;
78889;SDS011;68279;48.964;14.502;2024-03-02T00:23:19;23.98;;;11.38;;
78889;SDS011;68279;48.964;14.502;2024-03-02T00:25:54;24.88;;;9.93;;
78889;SDS011;68279;48.964;14.502;2024-03-02T00:28:36;28.15;;;12.63;;
78889;SDS011;68279;48.964;14.502;2024-03-02T00:33:37;17.38;;;8.75;;
78889;SDS011;68279;48.964;14.502;2024-03-02T00:39:03;18.35;;;9.88;;
78889;SDS011;68279;48.964;14.502;2024-03-02T00:41:33;20.73;;;8.65;;
78889;SDS011;68279;48.964;14.502;2024-03-02T00:44:02;21.92;;;10.30;;
78889;SDS011;68279;48.964;14.502;2024-03-02T00:49:00;21.10;;;9.30;;
78889;SDS011;68279;48.964;14.502;2024-03-02T00:51:29;32.67;;;14.18;;
78889;SDS011;68279;48.964;14.502;2024-03-02T00:54:00;21.00;;;10.68;;
78889;SDS011;68279;48.964;14.502;2024-03-02T00:56:29;22.05;;;12.10;;
78889;SDS011;68279;48.964;14.502;2024-03-02T00:58:55;27.05;;;9.90;;
78889;SDS011;68279;48.964;14.502;2024-03-02T01:01:21;23.05;;;9.75;;
78889;SDS011;68279;48.964;14.502;2024-03-02T01:03:46;22.10;;;10.90;;
78889;SDS011;68279;48.964;14.502;2024-03-02T01:06:12;33.30;;;11.63;;
78889;SDS011;68279;48.964;14.502;2024-03-02T01:08:39;30.98;;;12.38;;
78889;SDS011;68279;48.964;14.502;2024-03-02T01:11:05;23.58;;;9.82;;
78889;SDS011;68279;48.964;14.502;2024-03-02T01:13:31;23.98;;;10.13;;
78889;SDS011;68279;48.964;14.502;2024-03-02T01:15:57;28.48;;;12.30;;
78889;SDS011;68279;48.964;14.502;2024-03-02T01:18:25;22.40;;;11.10;;
78889;SDS011;68279;48.964;14.502;2024-03-02T01:20:51;27.55;;;13.88;;
78889;SDS011;68279;48.964;14.502;2024-03-02T01:23:20;29.30;;;12.13;;
78889;SDS011;68279;48.964;14.502;2024-03-02T01:25:46;29.20;;;11.77;;
78889;SDS011;68279;48.964;14.502;2024-03-02T01:28:14;27.83;;;15.05;;
78889;SDS011;68279;48.964;14.502;2024-03-02T01:30:40;21.42;;;10.20;;
78889;SDS011;68279;48.964;14.502;2024-03-02T01:33:05;21.80;;;12.27;;
78889;SDS011;68279;48.964;14.502;2024-03-02T01:35:32;30.73;;;12.55;;
78889;SDS011;68279;48.964;14.502;2024-03-02T01:37:58;27.38;;;12.45;;
78889;SDS011;68279;48.964;14.502;2024-03-02T01:40:23;29.52;;;9.40;;
78889;SDS011;68279;48.964;14.502;2024-03-02T01:42:52;27.35;;;12.43;;
78889;SDS011;68279;48.964;14.502;2024-03-02T01:45:23;24.40;;;13.23;;
78889;SDS011;68279;48.964;14.502;2024-03-02T01:47:49;23.85;;;10.38;;
78889;SDS011;68279;48.964;14.502;2024-03-02T01:50:14;21.30;;;9.85;;
78889;SDS011;68279;48.964;14.502;2024-03-02T01:52:40;21.00;;;9.98;;
78889;SDS011;68279;48.964;14.502;2024-03-02T01:55:06;22.67;;;10.27;;
78889;SDS011;68279;48.964;14.502;2024-03-02T01:57:32;28.33;;;13.23;;
78889;SDS011;68279;48.964;14.502;2024-03-02T01:59:59;25.35;;;10.85;;
78889;SDS011;68279;48.964;14.502;2024-03-02T02:02:25;19.77;;;10.05;;
78889;SDS011;68279;48.964;14.502;2024-03-02T02:04:51;27.42;;;11.02;;
78889;SDS011;68279;48.964;14.502;2024-03-02T02:07:18;20.92;;;9.10;;
78889;SDS011;68279;48.964;14.502;2024-03-02T02:09:43;16.67;;;8.85;;
78889;SDS011;68279;48.964;14.502;2024-03-02T02:12:09;26.48;;;11.25;;
78889;SDS011;68279;48.964;14.502;2024-03-02T02:14:35;30.15;;;12.75;;
78889;SDS011;68279;48.964;14.502;2024-03-02T02:17:02;21.40;;;8.80;;
78889;SDS011;68279;48.964;14.502;2024-03-02T02:19:27;23.92;;;10.93;;
78889;SDS011;68279;48.964;14.502;2024-03-02T02:21:54;26.13;;;10.77;;
78889;SDS011;68279;48.964;14.502;2024-03-02T02:24:20;24.75;;;10.02;;
78889;SDS011;68279;48.964;14.502;2024-03-02T02:26:46;24.75;;;8.98;;
78889;SDS011;68279;48.964;14.502;2024-03-02T02:29:11;24.17;;;10.35;;
78889;SDS011;68279;48.964;14.502;2024-03-02T02:31:40;34.95;;;12.43;;
78889;SDS011;68279;48.964;14.502;2024-03-02T02:34:06;25.13;;;12.23;;
78889;SDS011;68279;48.964;14.502;2024-03-02T02:36:32;27.98;;;10.85;;
78889;SDS011;68279;48.964;14.502;2024-03-02T02:39:01;21.08;;;9.95;;
78889;SDS011;68279;48.964;14.502;2024-03-02T02:41:30;33.75;;;10.48;;
78889;SDS011;68279;48.964;14.502;2024-03-02T02:43:55;22.63;;;9.90;;
78889;SDS011;68279;48.964;14.502;2024-03-02T02:46:21;15.35;;;8.63;;
78889;SDS011;68279;48.964;14.502;2024-03-02T02:48:47;35.13;;;11.45;;
78889;SDS011;68279;48.964;14.502;2024-03-02T02:51:12;27.02;;;12.05;;
78889;SDS011;68279;48.964;14.502;2024-03-02T02:53:38;23.45;;;8.65;;
78889;SDS011;68279;48.964;14.502;2024-03-02T02:56:08;16.63;;;8.13;;
78889;SDS011;68279;48.964;14.502;2024-03-02T02:58:34;23.35;;;9.43;;
78889;SDS011;68279;48.964;14.502;2024-03-02T03:00:59;26.33;;;10.57;;
78889;SDS011;68279;48.964;14.502;2024-03-02T03:03:25;27.02;;;12.45;;
78889;SDS011;68279;48.964;14.502;2024-03-02T03:05:50;21.05;;;9.32;;
78889;SDS011;68279;48.964;14.502;2024-03-02T03:08:16;18.73;;;10.70;;
78889;SDS011;68279;48.964;14.502;2024-03-02T03:10:42;21.98;;;9.35;;
78889;SDS011;68279;48.964;14.502;2024-03-02T03:13:09;20.02;;;9.48;;
78889;SDS011;68279;48.964;14.502;2024-03-02T03:15:35;16.42;;;8.82;;
78889;SDS011;68279;48.964;14.502;2024-03-02T03:18:04;25.77;;;13.77;;
78889;SDS011;68279;48.964;14.502;2024-03-02T03:20:31;21.02;;;8.95;;
78889;SDS011;68279;48.964;14.502;2024-03-02T03:22:57;19.83;;;9.13;;
78889;SDS011;68279;48.964;14.502;2024-03-02T03:25:23;21.40;;;12.00;;
78889;SDS011;68279;48.964;14.502;2024-03-02T03:27:48;24.98;;;9.80;;
78889;SDS011;68279;48.964;14.502;2024-03-02T03:30:15;21.27;;;11.35;;
78889;SDS011;68279;48.964;14.502;2024-03-02T03:32:40;14.55;;;9.52;;
78889;SDS011;68279;48.964;14.502;2024-03-02T03:35:06;26.90;;;10.70;;
78889;SDS011;68279;48.964;14.502;2024-03-02T03:37:32;22.05;;;10.45;;
78889;SDS011;68279;48.964;14.502;2024-03-02T03:40:04;29.10;;;10.35;;
78889;SDS011;68279;48.964;14.502;2024-03-02T03:42:39;25.30;;;9.65;;
78889;SDS011;68279;48.964;14.502;2024-03-02T03:45:08;24.23;;;10.80;;
78889;SDS011;68279;48.964;14.502;2024-03-02T03:47:34;29.55;;;11.57;;
78889;SDS011;68279;48.964;14.502;2024-03-02T03:49:59;20.30;;;8.43;;
78889;SDS011;68279;48.964;14.502;2024-03-02T03:52:25;15.13;;;9.25;;
78889;SDS011;68279;48.964;14.502;2024-03-02T03:54:51;19.08;;;8.40;;
78889;SDS011;68279;48.964;14.502;2024-03-02T03:57:16;23.33;;;10.10;;
78889;SDS011;68279;48.964;14.502;2024-03-02T03:59:42;34.92;;;11.68;;
78889;SDS011;68279;48.964;14.502;2024-03-02T04:02:08;22.67;;;9.35;;
78889;SDS011;68279;48.964;14.502;2024-03-02T04:04:34;22.83;;;10.48;;
78889;SDS011;68279;48.964;14.502;2024-03-02T04:07:00;24.67;;;12.38;;
78889;SDS011;68279;48.964;14.502;2024-03-02T04:09:26;22.42;;;10.32;;
78889;SDS011;68279;48.964;14.502;2024-03-02T04:11:52;17.70;;;8.57;;
78889;SDS011;68279;48.964;14.502;2024-03-02T04:14:18;24.13;;;9.43;;
78889;SDS011;68279;48.964;14.502;2024-03-02T04:16:43;18.85;;;8.82;;
78889;SDS011;68279;48.964;14.502;2024-03-02T04:19:09;13.35;;;8.48;;
78889;SDS011;68279;48.964;14.502;2024-03-02T04:21:35;28.75;;;10.43;;
78889;SDS011;68279;48.964;14.502;2024-03-02T04:24:01;17.77;;;8.55;;
78889;SDS011;68279;48.964;14.502;2024-03-02T04:26:27;16.55;;;8.10;;
78889;SDS011;68279;48.964;14.502;2024-03-02T04:28:53;21.20;;;10.40;;
78889;SDS011;68279;48.964;14.502;2024-03-02T04:31:19;23.52;;;11.43;;
78889;SDS011;68279;48.964;14.502;2024-03-02T04:33:46;15.38;;;8.85;;
78889;SDS011;68279;48.964;14.502;2024-03-02T04:36:11;20.08;;;9.43;;
78889;SDS011;68279;48.964;14.502;2024-03-02T04:38:37;21.50;;;8.52;;
78889;SDS011;68279;48.964;14.502;2024-03-02T04:41:07;18.00;;;9.20;;
78889;SDS011;68279;48.964;14.502;2024-03-02T04:43:32;23.00;;;8.30;;
78889;SDS011;68279;48.964;14.502;2024-03-02T04:45:59;19.95;;;8.88;;
78889;SDS011;68279;48.964;14.502;2024-03-02T04:48:24;15.75;;;8.80;;
78889;SDS011;68279;48.964;14.502;2024-03-02T04:50:50;18.10;;;10.07;;
78889;SDS011;68279;48.964;14.502;2024-03-02T04:53:16;25.67;;;8.57;;
78889;SDS011;68279;48.964;14.502;2024-03-02T04:55:42;18.67;;;7.78;;
78889;SDS011;68279;48.964;14.502;2024-03-02T04:58:08;25.63;;;10.75;;
78889;SDS011;68279;48.964;14.502;2024-03-02T05:00:34;20.67;;;8.40;;
78889;SDS011;68279;48.964;14.502;2024-03-02T05:03:00;25.60;;;10.90;;
78889;SDS011;68279;48.964;14.502;2024-03-02T05:05:26;24.58;;;9.68;;
78889;SDS011;68279;48.964;14.502;2024-03-02T05:07:52;22.83;;;9.18;;
78889;SDS011;68279;48.964;14.502;2024-03-02T05:10:18;17.55;;;7.82;;
78889;SDS011;68279;48.964;14.502;2024-03-02T05:12:43;19.02;;;12.85;;
78889;SDS011;68279;48.964;14.502;2024-03-02T05:15:14;30.73;;;11.65;;
78889;SDS011;68279;48.964;14.502;2024-03-02T05:17:39;28.70;;;11.82;;
78889;SDS011;68279;48.964;14.502;2024-03-02T05:20:08;20.83;;;9.35;;
78889;SDS011;68279;48.964;14.502;2024-03-02T05:22:34;27.70;;;9.00;;
78889;SDS011;68279;48.964;14.502;2024-03-02T05:25:00;18.48;;;10.30;;
78889;SDS011;68279;48.964;14.502;2024-03-02T05:27:26;18.20;;;9.07;;
78889;SDS011;68279;48.964;14.502;2024-03-02T05:29:52;20.60;;;9.00;;
78889;SDS011;68279;48.964;14.502;2024-03-02T05:32:18;19.17;;;8.27;;
78889;SDS011;68279;48.964;14.502;2024-03-02T05:34:44;17.80;;;8.07;;
78889;SDS011;68279;48.964;14.502;2024-03-02T05:37:09;26.08;;;10.23;;
78889;SDS011;68279;48.964;14.502;2024-03-02T05:39:35;22.52;;;10.18;;
78889;SDS011;68279;48.964;14.502;2024-03-02T05:42:00;22.15;;;8.85;;
78889;SDS011;68279;48.964;14.502;2024-03-02T05:44:26;24.58;;;9.23;;
78889;SDS011;68279;48.964;14.502;2024-03-02T05:46:52;40.63;;;12.68;;
78889;SDS011;68279;48.964;14.502;2024-03-02T05:49:17;24.75;;;12.68;;
78889;SDS011;68279;48.964;14.502;2024-03-02T05:51:43;20.60;;;8.70;;
78889;SDS011;68279;48.964;14.502;2024-03-02T05:54:09;29.27;;;12.25;;
78889;SDS011;68279;48.964;14.502;2024-03-02T05:56:34;30.92;;;12.38;;
78889;SDS011;68279;48.964;14.502;2024-03-02T05:59:00;27.23;;;11.25;;
78889;SDS011;68279;48.964;14.502;2024-03-02T06:01:38;23.00;;;11.20;;
78889;SDS011;68279;48.964;14.502;2024-03-02T06:04:11;22.05;;;10.88;;
78889;SDS011;68279;48.964;14.502;2024-03-02T06:06:38;30.42;;;11.13;;
78889;SDS011;68279;48.964;14.502;2024-03-02T06:09:06;22.60;;;11.25;;
78889;SDS011;68279;48.964;14.502;2024-03-02T06:11:38;19.73;;;10.88;;
78889;SDS011;68279;48.964;14.502;2024-03-02T06:14:06;25.88;;;10.32;;
78889;SDS011;68279;48.964;14.502;2024-03-02T06:16:33;25.00;;;8.60;;
78889;SDS011;68279;48.964;14.502;2024-03-02T06:18:59;22.42;;;9.15;;
78889;SDS011;68279;48.964;14.502;2024-03-02T06:21:25;23.80;;;7.88;;
78889;SDS011;68279;48.964;14.502;2024-03-02T06:23:51;23.35;;;9.45;;
78889;SDS011;68279;48.964;14.502;2024-03-02T06:26:18;20.20;;;9.52;;
78889;SDS011;68279;48.964;14.502;2024-03-02T06:28:44;22.35;;;10.57;;
78889;SDS011;68279;48.964;14.502;2024-03-02T06:31:11;35.67;;;10.38;;
78889;SDS011;68279;48.964;14.502;2024-03-02T06:33:36;20.25;;;8.57;;
78889;SDS011;68279;48.964;14.502;2024-03-02T06:36:03;22.10;;;9.68;;
78889;SDS011;68279;48.964;14.502;2024-03-02T06:38:33;19.50;;;8.80;;
78889;SDS011;68279;48.964;14.502;2024-03-02T06:40:59;34.25;;;9.90;;
78889;SDS011;68279;48.964;14.502;2024-03-02T06:43:25;31.20;;;10.45;;
78889;SDS011;68279;48.964;14.502;2024-03-02T06:45:51;26.75;;;9.73;;
78889;SDS011;68279;48.964;14.502;2024-03-02T06:48:17;32.60;;;8.73;;
78889;SDS011;68279;48.964;14.502;2024-03-02T06:50:46;23.58;;;11.10;;
78889;SDS011;68279;48.964;14.502;2024-03-02T06:53:15;33.20;;;10.77;;
78889;SDS011;68279;48.964;14.502;2024-03-02T06:55:45;30.58;;;10.18;;
78889;SDS011;68279;48.964;14.502;2024-03-02T06:58:14;22.83;;;10.40;;
78889;SDS011;68279;48.964;14.502;2024-03-02T07:00:43;23.40;;;9.88;;
78889;SDS011;68279;48.964;14.502;2024-03-02T07:03:13;27.75;;;9.75;;
78889;SDS011;68279;48.964;14.502;2024-03-02T07:05:40;31.05;;;11.07;;
78889;SDS011;68279;48.964;14.502;2024-03-02T07:08:06;28.58;;;10.57;;
78889;SDS011;68279;48.964;14.502;2024-03-02T07:10:33;31.15;;;9.73;;
78889;SDS011;68279;48.964;14.502;2024-03-02T07:12:58;27.42;;;10.65;;
78889;SDS011;68279;48.964;14.502;2024-03-02T07:15:24;35.95;;;12.20;;
78889;SDS011;68279;48.964;14.502;2024-03-02T07:17:53;26.92;;;11.25;;
78889;SDS011;68279;48.964;14.502;2024-03-02T07:20:18;27.00;;;10.90;;
78889;SDS011;68279;48.964;14.502;2024-03-02T07:22:44;24.20;;;9.80;;
78889;SDS011;68279;48.964;14.502;2024-03-02T07:25:09;30.48;;;11.35;;
78889;SDS011;68279;48.964;14.502;2024-03-02T07:27:36;26.80;;;10.35;;
78889;SDS011;68279;48.964;14.502;2024-03-02T07:30:02;34.90;;;10.63;;
78889;SDS011;68279;48.964;14.502;2024-03-02T07:32:30;23.05;;;10.00;;
78889;SDS011;68279;48.964;14.502;2024-03-02T07:34:55;26.90;;;10.05;;
78889;SDS011;68279;48.964;14.502;2024-03-02T07:37:21;22.88;;;10.18;;
78889;SDS011;68279;48.964;14.502;2024-03-02T07:39:50;24.80;;;9.27;;
78889;SDS011;68279;48.964;14.502;2024-03-02T07:42:16;30.33;;;10.52;;
78889;SDS011;68279;48.964;14.502;2024-03-02T07:44:43;22.13;;;9.77;;
78889;SDS011;68279;48.964;14.502;2024-03-02T07:47:10;31.33;;;10.60;;
78889;SDS011;68279;48.964;14.502;2024-03-02T07:49:35;26.80;;;9.85;;
78889;SDS011;68279;48.964;14.502;2024-03-02T07:52:01;32.28;;;11.60;;
78889;SDS011;68279;48.964;14.502;2024-03-02T07:54:27;30.30;;;11.27;;
78889;SDS011;68279;48.964;14.502;2024-03-02T07:56:52;31.60;;;11.07;;
78889;SDS011;68279;48.964;14.502;2024-03-02T07:59:19;25.73;;;10.63;;
78889;SDS011;68279;48.964;14.502;2024-03-02T08:01:48;30.70;;;11.75;;
78889;SDS011;68279;48.964;14.502;2024-03-02T08:04:14;26.00;;;10.38;;
78889;SDS011;68279;48.964;14.502;2024-03-02T08:06:40;22.67;;;9.68;;
78889;SDS011;68279;48.964;14.502;2024-03-02T08:09:05;29.25;;;11.65;;
78889;SDS011;68279;48.964;14.502;2024-03-02T08:11:35;30.95;;;9.23;;
78889;SDS011;68279;48.964;14.502;2024-03-02T08:14:02;29.95;;;10.90;;
78889;SDS011;68279;48.964;14.502;2024-03-02T08:16:28;27.20;;;9.82;;
78889;SDS011;68279;48.964;14.502;2024-03-02T08:18:54;29.08;;;10.02;;
78889;SDS011;68279;48.964;14.502;2024-03-02T08:21:22;28.15;;;10.70;;
78889;SDS011;68279;48.964;14.502;2024-03-02T08:23:47;31.85;;;12.15;;
78889;SDS011;68279;48.964;14.502;2024-03-02T08:26:13;32.53;;;12.60;;
78889;SDS011;68279;48.964;14.502;2024-03-02T08:28:39;39.35;;;13.55;;
78889;SDS011;68279;48.964;14.502;2024-03-02T08:31:06;32.63;;;11.43;;
78889;SDS011;68279;48.964;14.502;2024-03-02T08:33:32;28.60;;;11.80;;
78889;SDS011;68279;48.964;14.502;2024-03-02T08:35:58;31.17;;;10.93;;
78889;SDS011;68279;48.964;14.502;2024-03-02T08:38:24;23.75;;;9.75;;
78889;SDS011;68279;48.964;14.502;2024-03-02T08:40:50;22.77;;;10.02;;
78889;SDS011;68279;48.964;14.502;2024-03-02T08:43:15;19.05;;;8.45;;
78889;SDS011;68279;48.964;14.502;2024-03-02T08:45:42;26.40;;;10.25;;
78889;SDS011;68279;48.964;14.502;2024-03-02T08:48:08;24.83;;;10.18;;
78889;SDS011;68279;48.964;14.502;2024-03-02T08:50:34;27.98;;;10.82;;
78889;SDS011;68279;48.964;14.502;2024-03-02T08:53:00;22.67;;;9.57;;
78889;SDS011;68279;48.964;14.502;2024-03-02T08:55:26;24.13;;;9.60;;
78889;SDS011;68279;48.964;14.502;2024-03-02T08:57:51;21.73;;;10.20;;
78889;SDS011;68279;48.964;14.502;2024-03-02T09:00:17;22.90;;;10.13;;
78889;SDS011;68279;48.964;14.502;2024-03-02T09:02:44;27.30;;;11.93;;
78889;SDS011;68279;48.964;14.502;2024-03-02T09:05:09;19.48;;;9.77;;
78889;SDS011;68279;48.964;14.502;2024-03-02T09:07:35;21.73;;;9.23;;
78889;SDS011;68279;48.964;14.502;2024-03-02T09:10:01;17.83;;;9.02;;
78889;SDS011;68279;48.964;14.502;2024-03-02T09:12:26;21.77;;;9.15;;
78889;SDS011;68279;48.964;14.502;2024-03-02T09:14:52;22.33;;;9.75;;
78889;SDS011;68279;48.964;14.502;2024-03-02T09:17:17;15.68;;;7.22;;
78889;SDS011;68279;48.964;14.502;2024-03-02T09:19:43;19.50;;;8.60;;
78889;SDS011;68279;48.964;14.502;2024-03-02T09:22:09;21.25;;;10.00;;
78889;SDS011;68279;48.964;14.502;2024-03-02T09:24:35;22.15;;;9.00;;
78889;SDS011;68279;48.964;14.502;2024-03-02T09:27:01;17.27;;;8.77;;
78889;SDS011;68279;48.964;14.502;2024-03-02T09:29:27;19.65;;;8.32;;
78889;SDS011;68279;48.964;14.502;2024-03-02T09:31:52;24.52;;;10.82;;
78889;SDS011;68279;48.964;14.502;2024-03-02T09:34:18;20.67;;;9.20;;
78889;SDS011;68279;48.964;14.502;2024-03-02T09:36:44;19.02;;;9.70;;
78889;SDS011;68279;48.964;14.502;2024-03-02T09:39:10;19.73;;;8.13;;
78889;SDS011;68279;48.964;14.502;2024-03-02T09:41:41;24.52;;;9.07;;
78889;SDS011;68279;48.964;14.502;2024-03-02T09:44:06;20.02;;;8.55;;
78889;SDS011;68279;48.964;14.502;2024-03-02T09:46:32;20.48;;;8.88;;
78889;SDS011;68279;48.964;14.502;2024-03-02T09:48:58;19.83;;;8.77;;
78889;SDS011;68279;48.964;14.502;2024-03-02T09:51:23;17.88;;;7.75;;
78889;SDS011;68279;48.964;14.502;2024-03-02T09:53:49;17.55;;;8.38;;
78889;SDS011;68279;48.964;14.502;2024-03-02T09:56:16;14.90;;;7.25;;
78889;SDS011;68279;48.964;14.502;2024-03-02T09:58:43;16.35;;;7.20;;
78889;SDS011;68279;48.964;14.502;2024-03-02T10:01:09;15.98;;;7.22;;
78889;SDS011;68279;48.964;14.502;2024-03-02T10:03:38;16.55;;;7.68;;
78889;SDS011;68279;48.964;14.502;2024-03-02T10:06:23;17.65;;;8.40;;
78889;SDS011;68279;48.964;14.502;2024-03-02T10:08:52;19.85;;;8.52;;
78889;SDS011;68279;48.964;14.502;2024-03-02T10:11:34;16.83;;;8.38;;
78889;SDS011;68279;48.964;14.502;2024-03-02T10:14:13;15.32;;;7.95;;
78889;SDS011;68279;48.964;14.502;2024-03-02T10:16:40;16.05;;;6.95;;
78889;SDS011;68279;48.964;14.502;2024-03-02T10:19:17;18.13;;;8.15;;
78889;SDS011;68279;48.964;14.502;2024-03-02T10:21:49;22.13;;;9.23;;
78889;SDS011;68279;48.964;14.502;2024-03-02T10:24:19;15.75;;;7.30;;
78889;SDS011;68279;48.964;14.502;2024-03-02T10:26:46;17.77;;;8.07;;
78889;SDS011;68279;48.964;14.502;2024-03-02T10:29:13;15.30;;;8.30;;
78889;SDS011;68279;48.964;14.502;2024-03-02T10:31:39;15.10;;;7.80;;
78889;SDS011;68279;48.964;14.502;2024-03-02T10:34:06;11.85;;;7.00;;
78889;SDS011;68279;48.964;14.502;2024-03-02T10:36:35;15.60;;;7.22;;
78889;SDS011;68279;48.964;14.502;2024-03-02T10:39:05;13.55;;;6.55;;
78889;SDS011;68279;48.964;14.502;2024-03-02T10:41:35;15.80;;;6.97;;
78889;SDS011;68279;48.964;14.502;2024-03-02T10:44:03;16.65;;;7.80;;
78889;SDS011;68279;48.964;14.502;2024-03-02T10:46:30;13.60;;;6.70;;
78889;SDS011;68279;48.964;14.502;2024-03-02T10:48:58;15.05;;;7.38;;
78889;SDS011;68279;48.964;14.502;2024-03-02T10:51:28;14.50;;;7.28;;
78889;SDS011;68279;48.964;14.502;2024-03-02T10:53:57;10.48;;;5.65;;
78889;SDS011;68279;48.964;14.502;2024-03-02T10:56:32;16.60;;;7.35;;
78889;SDS011;68279;48.964;14.502;2024-03-02T10:59:03;16.20;;;7.15;;
78889;SDS011;68279;48.964;14.502;2024-03-02T11:01:32;15.68;;;7.05;;
78889;SDS011;68279;48.964;14.502;2024-03-02T11:03:58;11.45;;;5.30;;
78889;SDS011;68279;48.964;14.502;2024-03-02T11:06:28;17.27;;;6.90;;
78889;SDS011;68279;48.964;14.502;2024-03-02T11:08:55;15.05;;;7.03;;
78889;SDS011;68279;48.964;14.502;2024-03-02T11:11:29;18.13;;;6.85;;
78889;SDS011;68279;48.964;14.502;2024-03-02T11:13:57;16.10;;;7.35;;
78889;SDS011;68279;48.964;14.502;2024-03-02T11:16:34;18.90;;;8.00;;
78889;SDS011;68279;48.964;14.502;2024-03-02T11:19:22;14.10;;;5.88;;
78889;SDS011;68279;48.964;14.502;2024-03-02T11:21:47;18.00;;;6.65;;
78889;SDS011;68279;48.964;14.502;2024-03-02T11:27:01;13.93;;;5.65;;
78889;SDS011;68279;48.964;14.502;2024-03-02T11:32:04;15.27;;;6.88;;
78889;SDS011;68279;48.964;14.502;2024-03-02T11:34:32;15.95;;;6.72;;
78889;SDS011;68279;48.964;14.502;2024-03-02T11:36:59;13.43;;;6.72;;
78889;SDS011;68279;48.964;14.502;2024-03-02T11:39:26;15.60;;;8.13;;
78889;SDS011;68279;48.964;14.502;2024-03-02T11:41:52;16.92;;;6.32;;
78889;SDS011;68279;48.964;14.502;2024-03-02T11:44:18;14.20;;;6.50;;
78889;SDS011;68279;48.964;14.502;2024-03-02T11:47:00;12.60;;;6.40;;
78889;SDS011;68279;48.964;14.502;2024-03-02T11:49:39;17.08;;;7.57;;
78889;SDS011;68279;48.964;14.502;2024-03-02T11:52:06;13.35;;;6.22;;
78889;SDS011;68279;48.964;14.502;2024-03-02T11:54:34;16.10;;;6.93;;
78889;SDS011;68279;48.964;14.502;2024-03-02T11:57:05;12.68;;;5.78;;
78889;SDS011;68279;48.964;14.502;2024-03-02T11:59:32;13.05;;;6.38;;
78889;SDS011;68279;48.964;14.502;2024-03-02T12:01:58;14.23;;;6.88;;
78889;SDS011;68279;48.964;14.502;2024-03-02T12:04:25;13.93;;;6.97;;
78889;SDS011;68279;48.964;14.502;2024-03-02T12:06:55;12.95;;;6.30;;
78889;SDS011;68279;48.964;14.502;2024-03-02T12:09:22;12.27;;;5.82;;
78889;SDS011;68279;48.964;14.502;2024-03-02T12:11:47;10.35;;;5.22;;
78889;SDS011;68279;48.964;14.502;2024-03-02T12:14:13;11.68;;;5.65;;
78889;SDS011;68279;48.964;14.502;2024-03-02T12:16:38;11.43;;;6.00;;
78889;SDS011;68279;48.964;14.502;2024-03-02T12:19:06;12.57;;;6.05;;
78889;SDS011;68279;48.964;14.502;2024-03-02T12:21:31;13.32;;;6.10;;
78889;SDS011;68279;48.964;14.502;2024-03-02T12:23:57;13.25;;;6.72;;
78889;SDS011;68279;48.964;14.502;2024-03-02T12:26:22;13.35;;;6.68;;
78889;SDS011;68279;48.964;14.502;2024-03-02T12:28:49;12.50;;;6.75;;
78889;SDS011;68279;48.964;14.502;2024-03-02T12:31:15;10.70;;;5.32;;
78889;SDS011;68279;48.964;14.502;2024-03-02T12:33:40;13.88;;;6.32;;
78889;SDS011;68279;48.964;14.502;2024-03-02T12:36:09;10.55;;;5.15;;
78889;SDS011;68279;48.964;14.502;2024-03-02T12:38:37;11.25;;;6.13;;
78889;SDS011;68279;48.964;14.502;2024-03-02T12:41:03;11.80;;;5.72;;
78889;SDS011;68279;48.964;14.502;2024-03-02T12:43:30;13.07;;;5.63;;
78889;SDS011;68279;48.964;14.502;2024-03-02T12:45:57;12.70;;;6.15;;
78889;SDS011;68279;48.964;14.502;2024-03-02T12:48:23;11.88;;;5.70;;
78889;SDS011;68279;48.964;14.502;2024-03-02T12:50:49;12.60;;;6.88;;
78889;SDS011;68279;48.964;14.502;2024-03-02T12:53:15;13.77;;;6.93;;
78889;SDS011;68279;48.964;14.502;2024-03-02T12:55:41;13.82;;;6.78;;
78889;SDS011;68279;48.964;14.502;2024-03-02T12:58:16;15.48;;;6.30;;
78889;SDS011;68279;48.964;14.502;2024-03-02T13:00:46;16.20;;;6.15;;
78889;SDS011;68279;48.964;14.502;2024-03-02T13:03:12;13.35;;;6.10;;
78889;SDS011;68279;48.964;14.502;2024-03-02T13:05:39;10.27;;;6.07;;
78889;SDS011;68279;48.964;14.502;2024-03-02T13:08:05;12.85;;;6.82;;
78889;SDS011;68279;48.964;14.502;2024-03-02T13:10:32;12.80;;;6.18;;
78889;SDS011;68279;48.964;14.502;2024-03-02T13:12:58;16.40;;;7.10;;
78889;SDS011;68279;48.964;14.502;2024-03-02T13:15:25;12.32;;;6.25;;
78889;SDS011;68279;48.964;14.502;2024-03-02T13:17:52;11.20;;;5.57;;
78889;SDS011;68279;48.964;14.502;2024-03-02T13:20:17;14.20;;;6.57;;
78889;SDS011;68279;48.964;14.502;2024-03-02T13:22:44;14.52;;;6.63;;
78889;SDS011;68279;48.964;14.502;2024-03-02T13:25:10;12.40;;;6.32;;
78889;SDS011;68279;48.964;14.502;2024-03-02T13:27:36;11.80;;;6.22;;
78889;SDS011;68279;48.964;14.502;2024-03-02T13:30:02;13.00;;;6.38;;
78889;SDS011;68279;48.964;14.502;2024-03-02T13:32:31;10.07;;;5.70;;
78889;SDS011;68279;48.964;14.502;2024-03-02T13:34:57;10.25;;;5.57;;
78889;SDS011;68279;48.964;14.502;2024-03-02T13:37:23;12.20;;;5.65;;
78889;SDS011;68279;48.964;14.502;2024-03-02T13:39:48;11.63;;;5.88;;
78889;SDS011;68279;48.964;14.502;2024-03-02T13:42:14;16.73;;;6.18;;
78889;SDS011;68279;48.964;14.502;2024-03-02T13:44:41;11.75;;;6.00;;
78889;SDS011;68279;48.964;14.502;2024-03-02T13:47:10;13.57;;;6.03;;
78889;SDS011;68279;48.964;14.502;2024-03-02T13:49:36;10.60;;;6.03;;
78889;SDS011;68279;48.964;14.502;2024-03-02T13:52:03;12.50;;;6.05;;
78889;SDS011;68279;48.964;14.502;2024-03-02T13:54:38;12.23;;;5.15;;
78889;SDS011;68279;48.964;14.502;2024-03-02T13:57:08;10.82;;;5.60;;
78889;SDS011;68279;48.964;14.502;2024-03-02T13:59:34;14.27;;;6.20;;
78889;SDS011;68279;48.964;14.502;2024-03-02T14:02:03;16.73;;;6.47;;
78889;SDS011;68279;48.964;14.502;2024-03-02T14:04:31;10.98;;;6.13;;
78889;SDS011;68279;48.964;14.502;2024-03-02T14:06:58;12.00;;;6.95;;
78889;SDS011;68279;48.964;14.502;2024-03-02T14:09:24;13.23;;;6.90;;
78889;SDS011;68279;48.964;14.502;2024-03-02T14:11:50;13.30;;;6.95;;
78889;SDS011;68279;48.964;14.502;2024-03-02T14:14:17;14.40;;;6.97;;
78889;SDS011;68279;48.964;14.502;2024-03-02T14:16:43;13.60;;;6.40;;
78889;SDS011;68279;48.964;14.502;2024-03-02T14:19:09;13.75;;;6.68;;
78889;SDS011;68279;48.964;14.502;2024-03-02T14:21:35;14.02;;;6.60;;
78889;SDS011;68279;48.964;14.502;2024-03-02T14:24:01;11.75;;;5.35;;
78889;SDS011;68279;48.964;14.502;2024-03-02T14:26:27;11.77;;;5.75;;
78889;SDS011;68279;48.964;14.502;2024-03-02T14:28:53;14.23;;;6.43;;
78889;SDS011;68279;48.964;14.502;2024-03-02T14:31:19;14.18;;;6.70;;